Roseburg, OR

8:09 PM PDT on August 03, 2015 (GMT -0700)
Roseburg Regional | | Change Station
CLOSE
Current Station
Airport
Location: Roseburg,
Elevation: 525 ft
Nearby Weather Stations
Active Advisory: Fire Weather Warning

Elev 525 ft 43.24 °N, 123.36 °W | Updated 16 minutes ago

Partly Cloudy
Partly Cloudy
79 °F
Feels Like 79 °F
N
9
Wind Variable Wind from NW

Today
High -- | Low -- °F
--% Chance of Precip.
Yesterday
High -- | Low -- °F
Precip. -- in
6:05 AM 8:32 PM
Waning Gibbous, 82% visible
Pressure 29.90 in
Visibility 10.0 miles
Clouds Clear
Dew Point 57 °F
Humidity 47%
Rainfall 0.00 in
Snow Depth Not available.
UV 0 out of 12
Pollen 3.70 out of 12
Air Quality Not available.
Flu Activity Not available.
METAR KRBG 040253Z AUTO 31008KT 10SM CLR 26/14 A2991 RMK AO2 SLP124 T02610139 53010

More Conditions Fewer Conditions

Pressure 29.90 in
Visibility 10.0 miles
Clouds Clear
Dew Point 57 °F
Humidity 47%
Rainfall 0.00 in
Snow Depth Not available.
UV 0 out of 12
Pollen 3.70 out of 12
Air Quality Not available.
Flu Activity Not available.
METAR KRBG 040253Z AUTO 31008KT 10SM CLR 26/14 A2991 RMK AO2 SLP124 T02610139 53010

More Conditions Fewer Conditions

10-Day Weather Forecast

×

Almanac

Astronomy

Aug. 03, 2015 Rise Set
Actual Time
Civil Twilight
Nautical Twilight
Astronomical Twilight
Moon
Length of Visible Light
Length of Day
Tomorrow will be .
, % of the Moon is Illuminated

Today's Extremes

State Highs State Lows

Community

WunderPhotos

Upload Photos

1,843,837 photos uploaded!

WunderBlogs® & News

Nearby

Air Quality

  Air Quality AQ Index Pollutant
Not available.

Snow Depth

Station Depth Elevation

Earthquake Activity

City Distance Mag. Time & Date
Minimum magnitude displayed is 2.5.

Coastal Water Temperatures

Place Temperature

Stations

Nearby Weather Stations

Station Location Temp. Windchill Dew Point Humidity Wind Precip. Elev Updated Type
                   
Fire Weather Warning
Statement as of 2:54 PM PDT on August 03, 2015

... Red flag warning remains in effect until 11 PM PDT this
evening...

* thunderstorms: scattered thunderstorms are expected to
redevelop this afternoon and continue into the evening.

* Impacts: increasing thunderstorm activity will create erratic
fire behavior.

* Affected area:
in south central or fire zones... 624... 625.
In southwest or fire zones... 617... 621... 623.

* Counties affected: lake and Harney.

Precautionary/preparedness actions...

A red flag warning means that extreme fire conditions are
occurring or imminent.